Time;durP1;ratioP1;P1;durP2;ratioP2;P2;SDS_P1;SDS_P2;PMS_P1;PMS_P2;Temp;Humidity;BMP_temperature;BMP_pressure;BME280_temperature;BME280_humidity;BME280_pressure;Samples;Min_cycle;Max_cycle;Signal;HPM_P1;HPM_P2
2023/08/16 00:01:32;;;;;;;3.10;2.90;;;24.40;90.00;23.90;96718.00;;;;5056707;28;20201;-87
2023/08/16 00:04:00;;;;;;;3.63;3.10;;;24.40;90.00;23.90;96719.00;;;;5056641;28;20248;-87
2023/08/16 00:06:28;;;;;;;3.17;2.97;;;24.30;89.70;23.90;96711.00;;;;5056292;28;20204;-87
2023/08/16 00:08:58;;;;;;;4.57;2.87;;;24.30;89.70;23.80;96718.00;;;;5057815;28;20196;-87
2023/08/16 00:11:25;;;;;;;3.53;3.23;;;24.30;90.20;23.80;96714.00;;;;5057039;28;20546;-88
2023/08/16 00:13:53;;;;;;;3.10;2.73;;;24.30;90.00;23.80;96717.00;;;;5057389;28;20227;-88
2023/08/16 00:16:20;;;;;;;2.97;2.77;;;24.30;90.00;23.80;96710.00;;;;5057405;28;20632;-87
2023/08/16 00:18:47;;;;;;;2.83;2.73;;;24.30;89.90;23.80;96714.00;;;;5055899;28;20295;-88
2023/08/16 00:21:16;;;;;;;3.70;2.87;;;24.30;89.90;23.70;96712.00;;;;5039690;28;20752;-87
2023/08/16 00:23:44;;;;;;;2.90;2.70;;;24.20;89.40;23.70;96716.00;;;;5039295;28;20568;-87
2023/08/16 00:26:11;;;;;;;2.83;2.63;;;24.20;89.50;23.70;96712.00;;;;5039170;28;20227;-87
2023/08/16 00:28:39;;;;;;;3.40;3.10;;;24.20;89.70;23.70;96718.00;;;;5055445;28;20692;-88
2023/08/16 00:31:06;;;;;;;3.10;2.90;;;24.20;89.70;23.70;96716.00;;;;5056897;28;20677;-87
2023/08/16 00:33:35;;;;;;;3.40;3.10;;;24.20;89.70;23.60;96708.00;;;;5055740;28;20248;-88
2023/08/16 00:36:02;;;;;;;3.57;3.17;;;24.10;89.40;23.60;96705.00;;;;5056260;28;20216;-87
2023/08/16 00:38:31;;;;;;;3.77;3.57;;;24.10;89.00;23.60;96699.00;;;;5055027;28;20214;-87
2023/08/16 00:40:58;;;;;;;3.43;3.23;;;24.10;88.80;23.60;96703.00;;;;5054973;28;20197;-87
2023/08/16 00:43:26;;;;;;;3.67;3.43;;;24.10;89.10;23.50;96694.00;;;;5056521;28;20219;-87
2023/08/16 00:45:55;;;;;;;3.60;3.30;;;24.10;89.10;23.50;96703.00;;;;5056223;28;20216;-87
2023/08/16 00:48:23;;;;;;;3.40;3.10;;;24.00;88.70;23.50;96694.00;;;;5055259;28;20192;-89
2023/08/16 00:50:50;;;;;;;3.90;3.57;;;24.00;88.50;23.40;96701.00;;;;5038660;28;20235;-88
2023/08/16 00:53:20;;;;;;;3.47;3.20;;;24.00;88.40;23.40;96700.00;;;;5054941;28;20256;-87
2023/08/16 00:55:49;;;;;;;3.70;3.40;;;23.90;88.00;23.40;96702.00;;;;5055366;28;20235;-88
2023/08/16 00:58:17;;;;;;;3.27;3.07;;;23.90;88.00;23.30;96689.00;;;;5037646;28;20199;-87
2023/08/16 01:00:45;;;;;;;3.60;3.30;;;23.90;88.20;23.30;96691.00;;;;5054890;28;20696;-89
2023/08/16 01:03:12;;;;;;;5.77;3.27;;;23.80;88.20;23.30;96692.00;;;;5055807;28;20199;-87
2023/08/16 01:05:40;;;;;;;3.30;3.10;;;23.80;89.10;23.20;96687.00;;;;5055716;28;20307;-87
2023/08/16 01:08:08;;;;;;;4.40;3.30;;;23.80;88.40;23.20;96690.00;;;;5055220;28;20290;-87
2023/08/16 01:10:43;;;;;;;3.67;3.40;;;23.80;88.30;23.20;96694.00;;;;5070449;28;20200;-87
2023/08/16 01:13:20;;;;;;;3.83;3.50;;;23.70;88.20;23.10;96693.00;;;;5039259;28;20550;-88
2023/08/16 01:15:50;;;;;;;3.33;3.03;;;23.70;87.70;23.10;96692.00;;;;5056736;28;20303;-89
2023/08/16 01:18:18;;;;;;;3.10;2.90;;;23.60;87.90;23.10;96683.00;;;;5060329;28;20199;-87
2023/08/16 01:20:48;;;;;;;3.40;2.73;;;23.60;88.10;23.00;96681.00;;;;5059450;28;20749;-87
2023/08/16 01:23:29;;;;;;;3.33;3.10;;;23.60;88.30;23.00;96687.00;;;;5056285;28;20653;-87
2023/08/16 01:26:09;;;;;;;3.03;2.83;;;23.50;88.00;23.00;96682.00;;;;5055158;28;20730;-87
2023/08/16 01:28:39;;;;;;;2.60;2.47;;;23.50;88.20;22.90;96677.00;;;;5050666;28;20215;-87
2023/08/16 01:31:07;;;;;;;3.27;3.07;;;23.50;88.50;22.90;96677.00;;;;5046491;28;20212;-87
2023/08/16 01:33:34;;;;;;;5.33;3.00;;;23.50;88.70;22.90;96675.00;;;;5055150;28;20303;-87
2023/08/16 01:36:02;;;;;;;3.30;3.10;;;23.50;88.80;22.90;96678.00;;;;5054804;28;20204;-88
2023/08/16 01:38:29;;;;;;;2.97;2.77;;;23.50;88.70;22.90;96685.00;;;;5055536;28;20204;-87
2023/08/16 01:41:02;;;;;;;2.90;2.70;;;23.40;88.80;22.90;96678.00;;;;5053889;28;20202;-87
2023/08/16 01:43:32;;;;;;;3.07;2.87;;;23.40;89.00;22.90;96688.00;;;;5054228;28;20632;-87
2023/08/16 01:46:04;;;;;;;3.20;3.00;;;23.40;88.90;22.80;96687.00;;;;5055276;28;20240;-87
2023/08/16 01:48:34;;;;;;;2.73;2.63;;;23.40;88.80;22.80;96685.00;;;;5054747;28;20207;-87
2023/08/16 01:51:02;;;;;;;3.80;3.37;;;23.40;88.80;22.80;96682.00;;;;5054340;28;20196;-89
2023/08/16 01:53:31;;;;;;;3.50;3.30;;;23.40;88.80;22.80;96690.00;;;;5054710;28;20238;-87
2023/08/16 01:56:00;;;;;;;3.47;3.17;;;23.30;88.40;22.80;96688.00;;;;5054645;28;20688;-87
2023/08/16 01:58:27;;;;;;;3.73;3.43;;;23.30;88.30;22.80;96688.00;;;;5054214;28;20203;-87
2023/08/16 02:00:56;;;;;;;3.37;3.03;;;23.30;88.40;22.70;96685.00;;;;5054681;28;20631;-87
2023/08/16 02:03:25;;;;;;;2.93;2.63;;;23.30;88.50;22.70;96680.00;;;;5054736;28;20287;-89
2023/08/16 02:05:53;;;;;;;3.37;3.17;;;23.30;88.70;22.70;96688.00;;;;5053369;28;20230;-87
2023/08/16 02:08:20;;;;;;;3.67;3.10;;;23.30;88.90;22.70;96698.00;;;;5053134;28;20202;-87
2023/08/16 02:10:49;;;;;;;5.43;2.97;;;23.20;88.70;22.70;96689.00;;;;5054305;28;20670;-87
2023/08/16 02:13:16;;;;;;;3.10;2.73;;;23.20;88.80;22.70;96686.00;;;;5053297;28;20194;-88
2023/08/16 02:15:43;;;;;;;3.10;2.90;;;23.20;88.80;22.60;96694.00;;;;5053090;28;20227;-87
2023/08/16 02:18:12;;;;;;;3.20;3.00;;;23.20;88.80;22.60;96696.00;;;;5053271;28;20199;-87
2023/08/16 02:20:42;;;;;;;2.77;2.63;;;23.20;88.90;22.60;96698.00;;;;5052901;28;20195;-87
2023/08/16 02:23:10;;;;;;;3.77;3.40;;;23.10;89.40;22.60;96698.00;;;;5054090;28;20199;-87
2023/08/16 02:25:39;;;;;;;3.27;2.90;;;23.20;88.80;22.60;96703.00;;;;5052684;28;20232;-87
2023/08/16 02:28:07;;;;;;;3.17;2.97;;;23.10;88.50;22.60;96698.00;;;;5037987;28;20194;-87
2023/08/16 02:30:35;;;;;;;3.17;2.97;;;23.10;88.40;22.50;96699.00;;;;5053037;28;20201;-87
2023/08/16 02:33:03;;;;;;;3.97;3.27;;;23.10;88.40;22.50;96697.00;;;;5054109;28;20193;-87
2023/08/16 02:35:31;;;;;;;3.70;3.40;;;23.10;88.60;22.50;96690.00;;;;5054042;28;20219;-87
2023/08/16 02:38:00;;;;;;;3.47;3.27;;;23.10;88.80;22.50;96692.00;;;;5053687;28;20576;-88
2023/08/16 02:40:28;;;;;;;3.60;3.37;;;23.10;88.80;22.50;96692.00;;;;5055946;28;20280;-87
2023/08/16 02:42:56;;;;;;;3.30;3.10;;;23.10;89.00;22.40;96683.00;;;;5056279;28;20669;-87
2023/08/16 02:45:23;;;;;;;3.13;2.83;;;23.10;89.00;22.40;96687.00;;;;5064370;28;20349;-87
2023/08/16 02:47:50;;;;;;;3.83;3.10;;;23.00;88.50;22.40;96691.00;;;;5058893;28;20244;-86
2023/08/16 02:50:18;;;;;;;3.33;3.13;;;23.00;88.30;22.40;96699.00;;;;5055702;28;20678;-88
2023/08/16 02:52:45;;;;;;;3.27;3.03;;;23.00;88.30;22.40;96708.00;;;;5056303;28;20576;-87
2023/08/16 02:55:14;;;;;;;2.90;2.73;;;23.00;88.10;22.30;96710.00;;;;5061551;28;20217;-87
2023/08/16 02:57:41;;;;;;;3.23;3.03;;;22.90;88.00;22.30;96713.00;;;;5064726;28;20290;-87
2023/08/16 03:00:12;;;;;;;3.90;3.60;;;22.90;88.20;22.30;96710.00;;;;5064502;28;20268;-87
2023/08/16 03:02:40;;;;;;;3.77;3.40;;;22.90;88.20;22.30;96712.00;;;;5052615;28;20244;-86
2023/08/16 03:05:09;;;;;;;3.20;3.00;;;22.90;88.20;22.20;96708.00;;;;5052836;28;20221;-87
2023/08/16 03:07:36;;;;;;;3.40;3.20;;;22.90;88.40;22.20;96716.00;;;;5052193;28;20604;-87
2023/08/16 03:10:04;;;;;;;3.77;3.57;;;22.90;88.40;22.20;96719.00;;;;5053364;28;20292;-86
2023/08/16 03:12:33;;;;;;;3.27;3.00;;;22.80;88.40;22.20;96723.00;;;;5052936;28;20205;-86
2023/08/16 03:15:00;;;;;;;3.70;3.40;;;22.80;88.40;22.20;96723.00;;;;5052753;28;20264;-88
2023/08/16 03:17:28;;;;;;;3.70;3.10;;;22.80;88.40;22.20;96723.00;;;;5052720;28;20201;-88
2023/08/16 03:19:55;;;;;;;3.23;3.03;;;22.80;88.40;22.10;96741.00;;;;5052068;28;20201;-88
2023/08/16 03:22:22;;;;;;;3.70;3.40;;;22.80;88.30;22.10;96728.00;;;;5052871;28;20197;-87
2023/08/16 03:24:50;;;;;;;3.53;3.23;;;22.80;88.30;22.10;96735.00;;;;5051011;28;20232;-87
2023/08/16 03:27:18;;;;;;;3.37;3.07;;;22.70;88.00;22.10;96742.00;;;;5052071;28;20197;-87
2023/08/16 03:29:47;;;;;;;3.43;3.13;;;22.70;87.90;22.00;96742.00;;;;5053425;28;20211;-87
2023/08/16 03:32:14;;;;;;;7.30;3.20;;;22.70;87.80;22.00;96742.00;;;;5052543;28;20287;-88
2023/08/16 03:34:43;;;;;;;3.77;3.47;;;22.70;87.80;22.00;96747.00;;;;5053182;28;20328;-88
2023/08/16 03:37:10;;;;;;;5.77;3.47;;;22.60;87.40;21.90;96754.00;;;;5055885;28;20221;-87
2023/08/16 03:39:38;;;;;;;3.67;3.37;;;22.60;87.30;21.90;96758.00;;;;5057181;28;20198;-88
2023/08/16 03:42:06;;;;;;;3.57;3.37;;;22.60;87.40;21.90;96758.00;;;;5032866;28;20284;-87
2023/08/16 03:44:33;;;;;;;3.30;3.10;;;22.50;87.60;21.90;96745.00;;;;5053818;28;20219;-87
2023/08/16 03:47:04;;;;;;;3.30;3.10;;;22.50;87.70;21.80;96750.00;;;;5052775;28;20556;-88
2023/08/16 03:49:31;;;;;;;3.93;3.27;;;22.50;87.50;21.80;96749.00;;;;5052595;28;20258;-87
2023/08/16 03:51:59;;;;;;;3.37;3.17;;;22.50;87.40;21.80;96754.00;;;;5052144;28;20196;-88
2023/08/16 03:54:26;;;;;;;3.50;3.20;;;22.40;88.20;21.80;96760.00;;;;5051143;28;20705;-88
2023/08/16 03:56:56;;;;;;;7.83;3.47;;;22.40;87.40;21.70;96756.00;;;;5052404;28;20211;-87
2023/08/16 03:59:23;;;;;;;3.50;3.20;;;22.40;87.50;21.70;96759.00;;;;5052477;28;20218;-88
2023/08/16 04:01:51;;;;;;;2.97;2.77;;;22.40;87.30;21.70;96766.00;;;;5052493;28;20192;-88
2023/08/16 04:04:20;;;;;;;3.50;3.30;;;22.30;87.30;21.60;96762.00;;;;5051867;28;20227;-88
2023/08/16 04:06:47;;;;;;;3.73;3.40;;;22.30;87.40;21.60;96759.00;;;;5018366;28;20661;-88
2023/08/16 04:09:16;;;;;;;3.53;3.23;;;22.30;87.60;21.60;96767.00;;;;5052663;28;20199;-88
2023/08/16 04:11:43;;;;;;;3.30;3.10;;;22.30;87.70;21.60;96756.00;;;;5034771;28;20200;-88
2023/08/16 04:14:11;;;;;;;3.30;3.07;;;22.20;87.90;21.60;96764.00;;;;5051983;28;20231;-88
2023/08/16 04:16:39;;;;;;;3.27;3.07;;;22.20;87.90;21.60;96757.00;;;;5052086;28;20225;-88
2023/08/16 04:19:06;;;;;;;3.50;3.30;;;22.20;88.00;21.60;96761.00;;;;5030749;28;20685;-88
2023/08/16 04:21:35;;;;;;;3.30;3.10;;;22.20;88.00;21.50;96756.00;;;;5031482;28;20194;-87
2023/08/16 04:24:02;;;;;;;3.73;3.40;;;22.20;88.10;21.60;96762.00;;;;5032408;28;20237;-87
2023/08/16 04:26:29;;;;;;;4.53;3.33;;;22.20;89.00;21.50;96766.00;;;;5038360;28;20193;-87
2023/08/16 04:28:57;;;;;;;4.97;3.10;;;22.20;88.20;21.50;96766.00;;;;5034597;28;20207;-87
2023/08/16 04:31:24;;;;;;;3.07;2.87;;;22.20;88.30;21.50;96761.00;;;;5051223;28;20287;-88
2023/08/16 04:33:51;;;;;;;3.77;3.47;;;22.20;88.30;21.50;96762.00;;;;5055591;28;20199;-88
2023/08/16 04:36:19;;;;;;;3.83;3.53;;;22.20;88.20;21.50;96769.00;;;;5054321;28;20221;-88
2023/08/16 04:38:47;;;;;;;3.27;3.03;;;22.10;88.20;21.50;96770.00;;;;5054272;28;20703;-87
2023/08/16 04:41:15;;;;;;;3.20;3.00;;;22.10;88.20;21.50;96766.00;;;;5055682;28;20287;-87
2023/08/16 04:43:42;;;;;;;4.57;3.30;;;22.10;88.30;21.50;96768.00;;;;5055185;28;20561;-87
2023/08/16 04:46:09;;;;;;;3.60;3.30;;;22.10;88.20;21.50;96774.00;;;;5054498;28;20229;-88
2023/08/16 04:48:37;;;;;;;3.77;3.47;;;22.10;88.20;21.50;96774.00;;;;5055699;28;20227;-87
2023/08/16 04:51:04;;;;;;;3.57;3.37;;;22.10;88.30;21.50;96774.00;;;;5055087;28;20741;-87
2023/08/16 04:53:31;;;;;;;3.27;3.07;;;22.10;88.40;21.50;96771.00;;;;5054039;28;20288;-88
2023/08/16 04:56:01;;;;;;;3.63;3.43;;;22.20;88.50;21.50;96778.00;;;;5037465;28;20226;-87
2023/08/16 04:58:28;;;;;;;4.17;3.87;;;22.10;88.30;21.50;96772.00;;;;5054305;28;20203;-87
2023/08/16 05:00:55;;;;;;;3.57;3.33;;;22.10;88.70;21.50;96772.00;;;;5055330;28;20212;-86
2023/08/16 05:03:22;;;;;;;4.17;3.87;;;22.10;88.80;21.50;96779.00;;;;5054822;28;20826;-88
2023/08/16 05:05:57;;;;;;;4.63;3.43;;;22.10;88.80;21.50;96779.00;;;;5054090;28;20220;-87
2023/08/16 05:08:24;;;;;;;3.50;3.30;;;22.10;88.40;21.50;96786.00;;;;5054557;28;20226;-88
2023/08/16 05:10:52;;;;;;;3.83;3.53;;;22.10;88.80;21.50;96783.00;;;;5054388;28;20239;-87
2023/08/16 05:13:20;;;;;;;3.90;3.60;;;22.10;88.90;21.50;96784.00;;;;5037132;28;20585;-87
2023/08/16 05:15:48;;;;;;;4.37;3.63;;;22.10;88.90;21.50;96787.00;;;;5069850;28;20604;-87
2023/08/16 05:18:15;;;;;;;3.50;3.30;;;22.10;89.20;21.60;96788.00;;;;5054392;28;20752;-87
2023/08/16 05:20:42;;;;;;;3.70;3.50;;;22.10;89.30;21.60;96791.00;;;;5036919;28;20205;-87
2023/08/16 05:23:10;;;;;;;3.23;3.03;;;22.20;89.50;21.60;96793.00;;;;5053862;28;20207;-87
2023/08/16 05:25:37;;;;;;;3.23;3.03;;;22.20;89.70;21.60;96788.00;;;;5053144;28;20232;-87
2023/08/16 05:28:05;;;;;;;3.50;3.20;;;22.20;89.70;21.60;96790.00;;;;5037830;28;20188;-87
2023/08/16 05:30:35;;;;;;;3.23;3.03;;;22.20;89.70;21.60;96795.00;;;;5054021;28;20207;-87
2023/08/16 05:33:02;;;;;;;3.50;3.30;;;22.20;89.60;21.70;96786.00;;;;5053171;28;20197;-87
2023/08/16 05:35:32;;;;;;;3.40;3.20;;;22.30;89.70;21.70;96790.00;;;;5053887;28;20233;-87
2023/08/16 05:38:00;;;;;;;3.60;3.40;;;22.30;89.80;21.70;96794.00;;;;5054627;28;20283;-87
2023/08/16 05:40:27;;;;;;;4.00;3.30;;;22.30;89.90;21.70;96796.00;;;;5053271;28;20199;-87
2023/08/16 05:42:55;;;;;;;3.17;2.97;;;22.30;89.90;21.80;96797.00;;;;5053513;28;20198;-87
2023/08/16 05:45:26;;;;;;;3.30;3.10;;;22.30;90.00;21.80;96799.00;;;;5053639;28;20306;-87
2023/08/16 05:47:55;;;;;;;3.57;3.27;;;22.30;89.90;21.80;96794.00;;;;5054108;28;20215;-87
2023/08/16 05:50:22;;;;;;;3.90;3.63;;;22.40;90.00;21.80;96803.00;;;;5052909;28;20222;-87
2023/08/16 05:52:49;;;;;;;4.00;3.57;;;22.40;90.00;21.90;96795.00;;;;5054365;28;20290;-87
2023/08/16 05:55:17;;;;;;;4.03;3.73;;;22.40;90.00;21.90;96800.00;;;;5053281;28;20307;-87
2023/08/16 05:57:44;;;;;;;5.67;5.07;;;22.40;90.00;21.90;96792.00;;;;5054170;28;20209;-87
2023/08/16 06:00:13;;;;;;;5.93;5.43;;;22.40;90.00;21.90;96800.00;;;;5052248;28;20288;-87
2023/08/16 06:02:40;;;;;;;4.77;4.47;;;22.50;90.10;21.90;96798.00;;;;5052954;28;20196;-87
2023/08/16 06:05:10;;;;;;;5.23;4.87;;;22.50;90.10;21.90;96803.00;;;;5054252;28;20232;-88
2023/08/16 06:07:37;;;;;;;4.50;4.10;;;22.50;90.10;22.00;96804.00;;;;5054005;28;20197;-87
2023/08/16 06:10:06;;;;;;;4.57;4.27;;;22.50;90.20;22.00;96804.00;;;;5044360;28;20200;-87
2023/08/16 06:12:33;;;;;;;3.83;3.53;;;22.60;90.30;22.00;96800.00;;;;5053813;28;20284;-87
2023/08/16 06:15:00;;;;;;;3.93;3.63;;;22.60;90.30;22.10;96809.00;;;;5053706;28;20221;-87
2023/08/16 06:17:28;;;;;;;4.33;3.90;;;22.60;90.40;22.10;96803.00;;;;5052418;28;20205;-87
2023/08/16 06:19:55;;;;;;;4.77;4.43;;;22.70;90.40;22.10;96806.00;;;;5053635;28;20851;-87
2023/08/16 06:22:24;;;;;;;5.00;4.60;;;22.70;90.40;22.20;96808.00;;;;5052135;28;20670;-87
2023/08/16 06:24:53;;;;;;;5.00;4.60;;;22.70;90.40;22.20;96799.00;;;;5053361;28;20224;-87
2023/08/16 06:27:20;;;;;;;4.70;4.40;;;22.70;90.40;22.30;96807.00;;;;5053269;28;20407;-87
2023/08/16 06:29:47;;;;;;;4.40;4.10;;;22.70;90.50;22.30;96809.00;;;;5053394;28;20208;-87
2023/08/16 06:32:15;;;;;;;4.80;4.50;;;22.80;90.50;22.40;96813.00;;;;5053503;28;20209;-87
2023/08/16 06:34:42;;;;;;;5.63;5.07;;;22.80;90.50;22.40;96809.00;;;;5051848;28;20226;-87
2023/08/16 06:37:09;;;;;;;4.27;3.97;;;22.90;90.60;22.40;96810.00;;;;5051991;28;20222;-87
2023/08/16 06:39:39;;;;;;;5.40;5.00;;;22.90;90.60;22.50;96820.00;;;;5051998;28;20199;-85
2023/08/16 06:42:07;;;;;;;5.33;4.83;;;23.00;90.70;22.50;96821.00;;;;5016021;28;20224;-86
2023/08/16 06:44:35;;;;;;;5.57;5.10;;;23.00;90.70;22.60;96822.00;;;;5031788;28;20216;-86
2023/08/16 06:47:02;;;;;;;4.93;4.63;;;23.00;90.70;22.60;96818.00;;;;5034878;28;20212;-88
2023/08/16 06:49:30;;;;;;;4.60;4.30;;;23.10;90.70;22.70;96824.00;;;;5052791;28;20549;-88
2023/08/16 06:51:58;;;;;;;5.10;4.60;;;23.10;90.70;22.70;96822.00;;;;5052655;28;20580;-87
2023/08/16 06:54:26;;;;;;;5.03;4.63;;;23.10;90.80;22.70;96817.00;;;;5050613;28;20236;-86
2023/08/16 06:56:57;;;;;;;4.70;4.40;;;23.20;90.80;22.80;96820.00;;;;5051625;28;20801;-87
2023/08/16 06:59:25;;;;;;;4.70;4.17;;;23.20;90.90;22.80;96820.00;;;;5052126;28;20627;-87
2023/08/16 07:01:55;;;;;;;4.57;4.23;;;23.30;91.00;22.90;96823.00;;;;5052912;28;20197;-87
2023/08/16 07:04:22;;;;;;;4.10;3.70;;;23.30;90.90;23.00;96820.00;;;;5052410;28;20270;-86
2023/08/16 07:06:50;;;;;;;3.93;3.70;;;23.40;90.80;23.10;96823.00;;;;5053265;28;20211;-87
2023/08/16 07:09:17;;;;;;;4.47;4.17;;;23.40;91.00;23.20;96827.00;;;;5063052;28;20256;-87
2023/08/16 07:11:44;;;;;;;4.07;3.77;;;23.50;91.20;23.30;96827.00;;;;5056367;28;20210;-84
2023/08/16 07:14:13;;;;;;;4.30;3.90;;;23.60;91.50;23.40;96824.00;;;;5053106;28;20307;-89
2023/08/16 07:16:40;;;;;;;4.90;4.33;;;23.60;91.60;23.50;96823.00;;;;5052879;28;20719;-84
2023/08/16 07:19:08;;;;;;;4.30;3.90;;;23.70;91.80;23.60;96830.00;;;;5032948;28;20193;-86
2023/08/16 07:21:36;;;;;;;5.70;5.17;;;23.90;91.80;23.80;96821.00;;;;5031552;28;20623;-86
2023/08/16 07:24:03;;;;;;;4.43;4.13;;;24.00;91.70;23.90;96828.00;;;;5043117;28;20223;-87
2023/08/16 07:26:30;;;;;;;4.77;4.37;;;24.10;91.70;24.00;96826.00;;;;5052293;28;20200;-86
2023/08/16 07:28:58;;;;;;;4.20;3.80;;;24.20;91.60;24.10;96828.00;;;;5052810;28;20579;-86
2023/08/16 07:31:27;;;;;;;5.03;4.53;;;24.30;91.30;24.20;96833.00;;;;5052286;28;20192;-85
2023/08/16 07:33:55;;;;;;;8.03;6.00;;;24.40;91.30;24.30;96828.00;;;;5052181;28;20601;-86
2023/08/16 07:36:22;;;;;;;6.90;5.13;;;24.60;91.30;24.50;96841.00;;;;5052462;28;20228;-85
2023/08/16 07:38:49;;;;;;;4.00;3.70;;;24.70;91.30;24.60;96832.00;;;;5052081;28;20665;-84
2023/08/16 07:41:17;;;;;;;3.97;3.07;;;24.80;90.90;24.70;96831.00;;;;5055291;28;20197;-81
2023/08/16 07:43:44;;;;;;;4.60;4.20;;;24.90;90.40;24.80;96829.00;;;;5053817;28;20281;-82
2023/08/16 07:46:11;;;;;;;3.97;3.37;;;25.00;90.20;24.90;96837.00;;;;5056536;28;20740;-81
2023/08/16 07:48:40;;;;;;;2.90;2.70;;;25.10;90.30;25.00;96836.00;;;;5056987;28;20475;-82
2023/08/16 07:51:07;;;;;;;3.10;2.90;;;25.20;90.10;25.10;96839.00;;;;5047949;28;20197;-83
2023/08/16 07:53:34;;;;;;;3.63;3.40;;;25.30;89.50;25.20;96844.00;;;;5057685;28;20224;-82
2023/08/16 07:56:01;;;;;;;4.13;3.57;;;25.40;90.20;25.30;96850.00;;;;5057063;28;20242;-82
2023/08/16 07:58:29;;;;;;;3.13;2.93;;;25.50;90.00;25.40;96851.00;;;;5057527;28;20209;-83
2023/08/16 08:00:56;;;;;;;3.87;2.50;;;25.60;89.40;25.50;96843.00;;;;5055641;28;20279;-81
2023/08/16 08:03:25;;;;;;;2.77;2.40;;;25.70;89.50;25.60;96846.00;;;;5058614;28;20197;-82
2023/08/16 08:05:54;;;;;;;4.20;3.23;;;25.80;89.40;25.60;96847.00;;;;5057810;28;20225;-82
2023/08/16 08:08:22;;;;;;;2.60;2.40;;;25.90;89.50;25.70;96848.00;;;;5061782;28;20192;-82
2023/08/16 08:10:49;;;;;;;3.00;2.80;;;26.00;89.80;25.80;96844.00;;;;5064298;28;20279;-81
2023/08/16 08:13:16;;;;;;;3.97;2.70;;;26.00;90.10;25.90;96841.00;;;;5063143;28;20721;-80
2023/08/16 08:15:43;;;;;;;2.30;2.20;;;26.10;90.20;26.00;96837.00;;;;5060322;28;20229;-80
2023/08/16 08:18:11;;;;;;;2.63;2.50;;;26.20;89.70;26.10;96833.00;;;;5059972;28;20220;-81
2023/08/16 08:20:40;;;;;;;2.67;2.47;;;26.30;89.70;26.10;96841.00;;;;5063761;28;20280;-81
2023/08/16 08:23:09;;;;;;;3.20;2.90;;;26.30;89.00;26.20;96842.00;;;;5054018;28;20201;-82
2023/08/16 08:25:36;;;;;;;2.53;2.40;;;26.40;88.90;26.30;96844.00;;;;5062686;28;20284;-81
2023/08/16 08:28:04;;;;;;;2.97;2.77;;;26.50;89.70;26.40;96841.00;;;;5063654;28;20248;-80
2023/08/16 08:30:31;;;;;;;3.03;2.83;;;26.60;89.90;26.50;96838.00;;;;5066368;28;20201;-80
2023/08/16 08:33:00;;;;;;;2.80;2.60;;;26.70;88.90;26.60;96827.00;;;;5071541;28;20246;-82
2023/08/16 08:35:27;;;;;;;2.83;2.63;;;26.80;88.30;26.70;96831.00;;;;5071586;28;20212;-81
2023/08/16 08:37:55;;;;;;;2.42;2.25;;;26.90;88.90;26.80;96832.00;;;;5048804;28;20205;-80
2023/08/16 08:40:24;;;;;;;2.55;2.42;;;27.00;89.70;26.90;96834.00;;;;5058109;28;20207;-80
2023/08/16 08:42:53;;;;;;;2.40;2.30;;;27.10;89.10;27.00;96834.00;;;;5038200;28;20280;-81
2023/08/16 08:45:20;;;;;;;2.15;2.05;;;27.20;88.80;27.10;96837.00;;;;5055477;28;20291;-80
2023/08/16 08:47:49;;;;;;;2.70;2.50;;;27.20;88.60;27.10;96844.00;;;;5053199;28;20576;-80
2023/08/16 08:50:16;;;;;;;2.33;2.20;;;27.30;87.60;27.20;96848.00;;;;5055358;28;20201;-81
2023/08/16 08:52:51;;;;;;;2.30;2.20;;;27.40;87.60;27.30;96852.00;;;;5052629;28;20192;-80
2023/08/16 08:55:18;;;;;;;2.20;2.10;;;27.50;85.80;27.40;96844.00;;;;5055471;28;20274;-81
2023/08/16 08:57:51;;;;;;;2.17;2.08;;;27.60;87.30;27.50;96844.00;;;;5054969;28;20239;-80
2023/08/16 09:00:20;;;;;;;1.98;1.88;;;27.70;87.30;27.60;96845.00;;;;5037197;28;20196;-80
2023/08/16 09:02:50;;;;;;;2.20;2.10;;;27.80;87.60;27.70;96846.00;;;;5056272;28;20207;-80
2023/08/16 09:05:22;;;;;;;2.10;2.00;;;27.90;87.80;27.80;96851.00;;;;5056243;28;20581;-81
2023/08/16 09:07:50;;;;;;;2.10;2.00;;;28.00;87.70;27.90;96849.00;;;;5056313;28;20208;-81
2023/08/16 09:10:18;;;;;;;12.73;2.28;;;28.10;86.10;28.10;96860.00;;;;5056535;28;20192;-81
2023/08/16 09:12:47;;;;;;;2.22;1.98;;;28.20;86.50;28.20;96864.00;;;;5052341;28;20666;-82
2023/08/16 09:15:15;;;;;;;1.90;1.80;;;28.30;85.20;28.30;96861.00;;;;5056480;28;20212;-83
2023/08/16 09:17:42;;;;;;;1.90;1.80;;;28.40;84.90;28.40;96863.00;;;;5051893;28;20224;-82
2023/08/16 09:20:11;;;;;;;2.60;1.90;;;28.50;84.90;28.50;96862.00;;;;5057498;28;20284;-82
2023/08/16 09:22:39;;;;;;;2.30;2.08;;;28.60;84.00;28.70;96859.00;;;;5057394;28;20254;-81
2023/08/16 09:25:10;;;;;;;2.20;2.00;;;28.70;83.80;28.80;96857.00;;;;5037896;28;20217;-81
2023/08/16 09:27:41;;;;;;;2.33;2.13;;;28.90;82.70;28.90;96852.00;;;;5052731;28;20207;-81
2023/08/16 09:30:14;;;;;;;1.95;1.85;;;29.00;84.60;29.00;96855.00;;;;5047143;28;20568;-80
2023/08/16 09:32:42;;;;;;;2.28;2.05;;;29.10;81.30;29.10;96851.00;;;;5057492;28;20197;-79
2023/08/16 09:35:13;;;;;;;1.75;1.65;;;29.20;83.40;29.20;96834.00;;;;5037138;28;20223;-80
2023/08/16 09:37:44;;;;;;;2.05;1.95;;;29.30;82.10;29.40;96841.00;;;;5052142;28;20226;-80
2023/08/16 09:40:13;;;;;;;1.90;1.80;;;29.50;83.50;29.40;96835.00;;;;5054802;28;20200;-80
2023/08/16 09:42:41;;;;;;;2.38;2.10;;;29.60;82.80;29.50;96828.00;;;;5052167;28;20203;-79
2023/08/16 09:45:11;;;;;;;2.60;2.10;;;29.70;82.90;29.70;96837.00;;;;5053660;28;20797;-80
2023/08/16 09:47:44;;;;;;;3.17;2.00;;;29.80;81.90;29.80;96834.00;;;;5053692;28;20197;-79
2023/08/16 09:50:17;;;;;;;1.88;1.77;;;29.90;80.30;29.90;96840.00;;;;5052220;28;20193;-79
2023/08/16 09:52:44;;;;;;;2.00;1.90;;;30.00;81.50;30.00;96849.00;;;;5052762;28;20192;-79
2023/08/16 09:55:12;;;;;;;2.15;2.05;;;30.10;80.20;30.20;96848.00;;;;5051184;28;20229;-79
2023/08/16 09:57:39;;;;;;;2.05;1.70;;;30.20;80.60;30.30;96843.00;;;;5036480;28;20224;-79
2023/08/16 10:00:16;;;;;;;2.25;2.00;;;30.30;79.40;30.40;96841.00;;;;5044730;28;20646;-79
2023/08/16 10:02:47;;;;;;;1.80;1.70;;;30.40;80.50;30.50;96842.00;;;;5052457;28;20196;-80
2023/08/16 10:05:16;;;;;;;2.15;2.05;;;30.50;81.10;30.60;96840.00;;;;5052494;28;20215;-79
2023/08/16 10:07:47;;;;;;;2.00;1.90;;;30.70;82.10;30.70;96843.00;;;;5036328;28;20204;-78
2023/08/16 10:10:16;;;;;;;1.83;1.73;;;30.70;81.30;30.80;96845.00;;;;5053300;28;20199;-79
2023/08/16 10:12:44;;;;;;;1.80;1.70;;;30.90;81.10;30.90;96841.00;;;;5054578;28;20189;-79
2023/08/16 10:15:15;;;;;;;1.80;1.70;;;31.00;79.50;31.10;96843.00;;;;5053525;28;20225;-79
2023/08/16 10:17:44;;;;;;;1.50;1.40;;;31.10;79.50;31.20;96835.00;;;;5053621;28;20217;-79
2023/08/16 10:20:23;;;;;;;1.85;1.67;;;31.20;80.10;31.20;96840.00;;;;5053805;28;20288;-79
2023/08/16 10:22:59;;;;;;;1.60;1.50;;;31.30;78.00;31.30;96841.00;;;;5054448;28;20207;-80
2023/08/16 10:25:32;;;;;;;1.50;1.40;;;31.50;79.20;31.40;96835.00;;;;5053441;28;20213;-80
2023/08/16 10:28:02;;;;;;;1.50;1.40;;;31.60;79.00;31.50;96837.00;;;;5053139;28;20201;-79
2023/08/16 10:30:34;;;;;;;2.05;1.50;;;31.70;78.60;31.60;96828.00;;;;5054280;28;20212;-79
2023/08/16 10:33:09;;;;;;;1.95;1.40;;;31.90;76.90;31.70;96834.00;;;;5057057;28;20464;-79
2023/08/16 10:35:42;;;;;;;1.70;1.60;;;32.00;77.30;31.90;96828.00;;;;5057599;28;20220;-78
2023/08/16 10:38:10;;;;;;;1.67;1.58;;;32.20;76.30;32.00;96834.00;;;;5045102;28;20212;-78
2023/08/16 10:40:37;;;;;;;1.42;1.38;;;32.30;76.30;32.10;96830.00;;;;5052626;28;20205;-78
2023/08/16 10:43:08;;;;;;;1.55;1.45;;;32.40;76.50;32.20;96831.00;;;;5052992;28;20196;-78
2023/08/16 10:45:37;;;;;;;1.30;1.30;;;32.50;76.60;32.30;96830.00;;;;5056023;28;20227;-79
2023/08/16 10:48:12;;;;;;;1.60;1.50;;;32.70;76.70;32.40;96827.00;;;;5057983;28;20291;-79
2023/08/16 10:50:40;;;;;;;1.33;1.25;;;32.80;74.50;32.50;96830.00;;;;5058570;28;20204;-78
2023/08/16 10:53:08;;;;;;;1.98;1.40;;;32.80;75.80;32.50;96818.00;;;;5044662;28;20193;-79
2023/08/16 10:55:36;;;;;;;1.85;1.60;;;32.90;76.80;32.60;96821.00;;;;5056749;28;20328;-79
2023/08/16 10:58:04;;;;;;;1.63;1.52;;;33.00;74.20;32.60;96815.00;;;;5054162;28;20731;-79
2023/08/16 11:00:40;;;;;;;1.50;1.40;;;33.00;74.10;32.60;96818.00;;;;5051700;28;20247;-79